Terminal Aerodrome Forecast
Issued by NWS

Home | Current Version | Previous Version | Graphics & Text | Print | Product List | Glossary On
Versions: 1 2 3 4 5 6 7 8 9 10 11 12
337
FTUS43 KICT 241720 AAA
TAFHUT
TAF AMD
KHUT 241720Z 2417/2518 33009KT P6SM BKN050
     FM241900 33008KT P6SM SCT050
     FM250000 VRB03KT P6SM SKC
     FM251200 16010KT P6SM FEW250
     FM251500 18015G22KT P6SM FEW040=

USA.gov is the U.S. government's official web portal to all federal, state and local government web resources and services.